createdAt,value
2018-12-20T00:02:06.812Z,8.10
2018-12-20T00:05:02.483Z,8.10
2018-12-20T00:11:09.131Z,8.00
2018-12-20T00:14:29.753Z,8.00
2018-12-20T00:17:17.194Z,8.00
2018-12-20T00:28:31.914Z,8.00
2018-12-20T00:31:15.964Z,7.90
2018-12-20T00:33:56.438Z,8.00
2018-12-20T00:43:03.810Z,8.00
2018-12-20T00:45:47.487Z,8.10
2018-12-20T00:48:53.415Z,8.10
2018-12-20T00:51:28.641Z,8.20
2018-12-20T00:54:35.833Z,8.20
2018-12-20T01:00:13.698Z,8.20
2018-12-20T01:03:13.172Z,8.20
2018-12-20T01:06:01.424Z,8.20
2018-12-20T01:08:59.026Z,8.10
2018-12-20T01:11:31.908Z,8.10
2018-12-20T01:14:14.239Z,8.00
2018-12-20T01:16:55.171Z,7.60
2018-12-20T01:19:42.524Z,8.00
2018-12-20T01:22:26.609Z,8.00
2018-12-20T01:25:14.025Z,8.00
2018-12-20T01:27:57.083Z,8.00
2018-12-20T01:30:44.960Z,8.00
2018-12-20T01:33:23.135Z,8.10
2018-12-20T01:36:10.815Z,8.00
2018-12-20T01:38:50.872Z,8.00
2018-12-20T01:44:22.197Z,8.10
2018-12-20T01:47:02.219Z,8.10
2018-12-20T01:49:44.537Z,8.10
2018-12-20T01:52:32.326Z,8.00
2018-12-20T01:55:14.021Z,8.10
2018-12-20T01:57:52.874Z,8.10
2018-12-20T02:00:33.214Z,8.10
2018-12-20T02:03:12.435Z,8.10
2018-12-20T02:06:12.988Z,8.20
2018-12-20T02:08:49.656Z,8.10
2018-12-20T02:11:29.322Z,8.20
2018-12-20T02:17:04.735Z,8.20
2018-12-20T02:19:46.404Z,8.20
2018-12-20T02:22:30.182Z,8.20
2018-12-20T02:25:11.365Z,8.20
2018-12-20T02:27:52.078Z,8.20
2018-12-20T02:30:36.940Z,8.20
2018-12-20T02:33:33.229Z,8.20
2018-12-20T02:36:11.802Z,8.20
2018-12-20T02:38:48.767Z,8.20
2018-12-20T02:41:28.491Z,8.10
2018-12-20T02:44:09.868Z,8.20
2018-12-20T02:46:46.715Z,8.20
2018-12-20T02:49:31.946Z,8.20
2018-12-20T02:52:19.044Z,8.20
2018-12-20T02:54:59.664Z,8.20
2018-12-20T02:57:42.686Z,8.20
2018-12-20T03:00:18.094Z,8.20
2018-12-20T03:03:03.492Z,8.20
2018-12-20T03:05:46.514Z,8.20
2018-12-20T03:08:31.903Z,8.20
2018-12-20T03:11:08.962Z,8.20
2018-12-20T03:13:45.165Z,8.20
2018-12-20T03:16:21.985Z,8.30
2018-12-20T03:19:13.166Z,8.20
2018-12-20T03:21:50.162Z,8.10
2018-12-20T03:24:33.763Z,8.10
2018-12-20T03:27:18.074Z,8.10
2018-12-20T03:30:06.952Z,8.10
2018-12-20T03:32:46.598Z,8.20
2018-12-20T03:35:35.156Z,8.10
2018-12-20T03:38:23.702Z,8.20
2018-12-20T03:41:05.650Z,8.10
2018-12-20T03:43:41.849Z,8.20
2018-12-20T03:46:18.832Z,8.20
2018-12-20T03:48:58.825Z,8.20
2018-12-20T03:51:31.787Z,8.20
2018-12-20T03:54:19.939Z,8.20
2018-12-20T03:57:18.320Z,8.20
2018-12-20T03:59:54.978Z,8.20
2018-12-20T04:02:48.255Z,8.30
2018-12-20T04:05:26.513Z,8.20
2018-12-20T04:10:50.792Z,8.20
2018-12-20T04:13:37.688Z,8.20
2018-12-20T04:16:18.532Z,8.20
2018-12-20T04:19:01.583Z,8.30
2018-12-20T04:21:38.420Z,8.30
2018-12-20T04:24:13.187Z,8.30
2018-12-20T04:26:50.869Z,8.30
2018-12-20T04:29:26.962Z,8.30
2018-12-20T04:32:04.083Z,8.30
2018-12-20T04:34:42.879Z,8.20
2018-12-20T04:37:16.048Z,8.20
2018-12-20T04:43:02.596Z,8.20
2018-12-20T04:46:01.945Z,8.20
2018-12-20T04:51:47.835Z,8.30
2018-12-20T04:54:26.664Z,8.30
2018-12-20T04:57:02.190Z,8.30
2018-12-20T04:59:37.675Z,8.30
2018-12-20T05:02:10.886Z,8.30
2018-12-20T05:04:51.770Z,8.30
2018-12-20T05:10:10.991Z,8.20
2018-12-20T05:12:47.955Z,8.20
2018-12-20T05:15:20.735Z,8.10
2018-12-20T05:17:59.299Z,8.10
2018-12-20T05:20:40.932Z,8.10
2018-12-20T05:23:17.578Z,8.10
2018-12-20T05:26:02.935Z,8.10
2018-12-20T05:28:41.084Z,8.10
2018-12-20T05:31:18.033Z,8.10
2018-12-20T05:33:54.972Z,8.10
2018-12-20T05:36:41.041Z,8.10
2018-12-20T05:39:16.614Z,8.10
2018-12-20T05:41:55.389Z,8.10
2018-12-20T05:47:22.422Z,8.10
2018-12-20T05:50:03.097Z,8.00
2018-12-20T05:52:47.839Z,8.10
2018-12-20T05:55:27.356Z,8.00
2018-12-20T05:58:02.210Z,8.00
2018-12-20T06:00:47.510Z,8.00
2018-12-20T06:03:22.081Z,8.00
2018-12-20T06:11:08.163Z,7.90
2018-12-20T06:16:52.196Z,7.80
2018-12-20T06:19:23.427Z,7.80
2018-12-20T06:22:05.187Z,7.80
2018-12-20T06:25:15.232Z,7.80
2018-12-20T06:28:04.893Z,7.80
2018-12-20T06:30:39.251Z,7.80
2018-12-20T06:33:22.352Z,7.80
2018-12-20T06:36:01.608Z,7.80
2018-12-20T06:45:01.406Z,7.70
2018-12-20T06:47:39.493Z,8.00
2018-12-20T06:50:42.564Z,7.70
2018-12-20T06:53:30.224Z,7.80
2018-12-20T07:01:52.274Z,7.80
2018-12-20T07:04:46.655Z,7.80
2018-12-20T07:07:34.906Z,7.90
2018-12-20T07:16:29.464Z,7.90
2018-12-20T07:19:40.176Z,7.90
2018-12-20T07:22:31.493Z,8.00
2018-12-20T07:31:27.895Z,8.10
2018-12-20T07:34:18.096Z,8.00
2018-12-20T07:37:15.158Z,8.10
2018-12-20T07:40:05.557Z,8.10
2018-12-20T07:42:53.794Z,8.10
2018-12-20T07:45:48.104Z,8.10
2018-12-20T08:58:27.002Z,8.10
2018-12-20T09:01:22.742Z,8.50
2018-12-20T09:04:15.582Z,8.60
2018-12-20T09:07:16.773Z,8.50
2018-12-20T09:10:11.471Z,8.50
2018-12-20T09:12:55.170Z,8.50
2018-12-20T09:15:44.403Z,8.40
2018-12-20T09:24:00.079Z,8.40
2018-12-20T09:29:38.490Z,8.50
2018-12-20T09:32:21.685Z,8.50
2018-12-20T09:35:11.568Z,8.50
2018-12-20T09:38:04.025Z,8.50
2018-12-20T09:43:51.929Z,8.70
2018-12-20T10:03:16.833Z,9.10
2018-12-20T10:06:16.273Z,9.50
2018-12-20T10:09:04.841Z,9.40
2018-12-20T10:12:01.687Z,9.30
2018-12-20T10:30:49.557Z,9.20
2018-12-20T10:33:47.500Z,9.00
2018-12-20T11:06:59.834Z,8.90
2018-12-20T23:38:50.049Z,8.80
2018-12-20T23:41:38.874Z,8.90
2018-12-20T23:44:33.335Z,8.90
